createdAt,value
2019-04-03T00:01:19.128Z,14.41
2019-04-03T00:03:50.371Z,14.37
2019-04-03T00:06:21.591Z,14.33
2019-04-03T00:08:52.979Z,14.27
2019-04-03T00:11:24.405Z,14.22
2019-04-03T00:13:55.683Z,14.14
2019-04-03T00:16:26.989Z,14.06
2019-04-03T00:18:58.207Z,14.02
2019-04-03T00:21:29.446Z,13.96
2019-04-03T00:24:00.665Z,13.93
2019-04-03T00:26:31.924Z,13.91
2019-04-03T00:29:03.236Z,13.91
2019-04-03T00:31:34.520Z,13.89
2019-04-03T00:34:05.864Z,13.87
2019-04-03T00:36:38.262Z,13.87
2019-04-03T00:39:09.620Z,13.89
2019-04-03T00:41:40.913Z,13.91
2019-04-03T00:44:12.321Z,13.95
2019-04-03T00:46:43.628Z,13.99
2019-04-03T00:49:15.081Z,14.01
2019-04-03T00:51:46.447Z,14.00
2019-04-03T00:54:17.743Z,13.98
2019-04-03T00:56:49.127Z,14.00
2019-04-03T00:59:20.392Z,13.96
2019-04-03T01:01:51.675Z,13.96
2019-04-03T01:04:22.999Z,13.98
2019-04-03T01:06:54.240Z,13.99
2019-04-03T01:09:25.733Z,13.99
2019-04-03T01:11:56.940Z,14.00
2019-04-03T01:14:28.165Z,14.01
2019-04-03T01:16:59.491Z,14.03
2019-04-03T01:19:30.761Z,14.04
2019-04-03T01:22:02.036Z,14.05
2019-04-03T01:24:33.366Z,14.07
2019-04-03T01:27:04.909Z,14.07
2019-04-03T01:29:36.195Z,14.05
2019-04-03T01:32:07.423Z,14.05
2019-04-03T01:34:38.704Z,14.04
2019-04-03T01:37:10.084Z,14.03
2019-04-03T01:39:41.389Z,14.03
2019-04-03T01:42:12.612Z,14.05
2019-04-03T01:44:43.760Z,14.06
2019-04-03T01:47:14.997Z,14.05
2019-04-03T01:49:46.179Z,14.06
2019-04-03T01:52:17.346Z,14.07
2019-04-03T01:54:48.549Z,14.09
2019-04-03T01:57:19.794Z,14.12
2019-04-03T01:59:51.038Z,14.14
2019-04-03T02:02:22.231Z,14.16
2019-04-03T02:04:53.463Z,14.20
2019-04-03T02:07:24.695Z,14.21
2019-04-03T02:09:55.893Z,14.23
2019-04-03T02:12:27.168Z,14.25
2019-04-03T02:14:59.338Z,14.27
2019-04-03T02:17:30.588Z,14.28
2019-04-03T02:20:01.764Z,14.29
2019-04-03T02:22:33.331Z,14.30
2019-04-03T02:25:04.800Z,14.29
2019-04-03T02:27:35.965Z,14.30
2019-04-03T02:30:12.140Z,14.30
2019-04-03T02:32:41.000Z,14.29
2019-04-03T02:35:12.197Z,14.27
2019-04-03T02:37:44.080Z,14.27
2019-04-03T02:40:16.300Z,14.22
2019-04-03T02:42:47.907Z,14.20
2019-04-03T02:45:22.752Z,14.18
2019-04-03T02:47:52.362Z,14.17
2019-04-03T02:50:26.900Z,14.15
2019-04-03T02:52:59.094Z,14.14
2019-04-03T02:55:30.729Z,14.13
2019-04-03T02:58:02.001Z,14.13
2019-04-03T03:00:33.911Z,14.11
2019-04-03T03:03:05.201Z,14.10
2019-04-03T03:05:36.614Z,14.07
2019-04-03T03:08:09.438Z,14.06
2019-04-03T03:10:41.183Z,14.03
2019-04-03T03:13:12.731Z,14.02
2019-04-03T03:15:45.071Z,14.00
2019-04-03T03:18:16.942Z,13.98
2019-04-03T03:20:48.708Z,13.96
2019-04-03T03:23:23.355Z,13.94
2019-04-03T03:25:53.453Z,13.93
2019-04-03T03:28:24.870Z,13.89
2019-04-03T03:31:02.629Z,13.87
2019-04-03T03:33:35.823Z,13.86
2019-04-03T03:36:02.885Z,13.82
2019-04-03T03:38:38.291Z,13.80
2019-04-03T03:41:07.813Z,13.77
2019-04-03T03:43:39.152Z,13.76
2019-04-03T03:46:11.539Z,13.74
2019-04-03T03:48:44.809Z,13.73
2019-04-03T03:51:16.430Z,13.72
2019-04-03T03:53:48.575Z,13.71
2019-04-03T03:56:20.534Z,13.69
2019-04-03T03:58:52.167Z,13.68
2019-04-03T04:01:23.487Z,13.67
2019-04-03T04:03:54.721Z,13.66
2019-04-03T04:06:29.356Z,13.65
2019-04-03T04:08:58.986Z,13.63
2019-04-03T04:11:31.244Z,13.62
2019-04-03T04:14:03.233Z,13.61
2019-04-03T04:16:37.265Z,13.59
2019-04-03T04:19:10.073Z,13.59
2019-04-03T04:21:44.284Z,13.57
2019-04-03T04:24:14.594Z,13.57
2019-04-03T04:26:45.842Z,13.55
2019-04-03T04:29:18.370Z,13.55
2019-04-03T04:31:49.553Z,13.54
2019-04-03T04:34:20.767Z,13.54
2019-04-03T04:36:54.771Z,13.52
2019-04-03T04:39:25.038Z,13.51
2019-04-03T04:41:56.232Z,13.49
2019-04-03T04:44:27.530Z,13.48
2019-04-03T04:46:58.825Z,13.47
2019-04-03T04:49:30.013Z,13.46
2019-04-03T04:52:01.391Z,13.44
2019-04-03T04:54:32.758Z,13.43
2019-04-03T04:57:04.194Z,13.42
2019-04-03T04:59:36.689Z,13.43
2019-04-03T05:02:08.363Z,13.42
2019-04-03T05:04:39.647Z,13.41
2019-04-03T05:07:10.880Z,13.40
2019-04-03T05:09:42.301Z,13.38
2019-04-03T05:12:13.779Z,13.36
2019-04-03T05:14:45.085Z,13.36
2019-04-03T05:17:16.381Z,13.36
2019-04-03T05:19:48.953Z,13.35
2019-04-03T05:22:23.198Z,13.36
2019-04-03T05:24:53.554Z,13.34
2019-04-03T05:27:24.718Z,13.34
2019-04-03T05:29:55.948Z,13.34
2019-04-03T05:32:27.115Z,13.32
2019-04-03T05:34:58.347Z,13.33
2019-04-03T05:37:29.621Z,13.33
2019-04-03T05:40:00.820Z,13.34
2019-04-03T05:42:31.985Z,13.34
2019-04-03T05:45:04.545Z,13.35
2019-04-03T05:47:39.290Z,13.36
2019-04-03T05:50:10.248Z,13.36
2019-04-03T05:52:41.561Z,13.37
2019-04-03T05:55:12.768Z,13.38
2019-04-03T05:57:45.894Z,13.39
2019-04-03T06:00:26.925Z,13.40
2019-04-03T06:02:58.248Z,13.41
2019-04-03T06:05:29.503Z,13.42
2019-04-03T06:08:00.753Z,13.42
2019-04-03T06:10:34.127Z,13.43
2019-04-03T06:13:06.098Z,13.45
2019-04-03T06:15:37.589Z,13.47
2019-04-03T06:18:08.909Z,13.48
2019-04-03T06:20:42.556Z,13.51
2019-04-03T06:23:13.188Z,13.51
2019-04-03T06:25:44.556Z,13.55
2019-04-03T06:28:16.142Z,13.57
2019-04-03T06:30:47.410Z,13.60
2019-04-03T06:33:18.675Z,13.64
2019-04-03T06:35:50.100Z,13.67
2019-04-03T06:38:23.976Z,13.70
2019-04-03T06:40:54.357Z,13.72
2019-04-03T06:43:25.627Z,13.73
2019-04-03T06:45:57.617Z,13.76
2019-04-03T06:48:29.727Z,13.76
2019-04-03T06:51:00.917Z,13.76
2019-04-03T06:53:32.234Z,13.75
2019-04-03T06:56:03.488Z,13.74
2019-04-03T06:58:38.655Z,13.72
2019-04-03T07:01:07.968Z,13.71
2019-04-03T07:03:39.250Z,13.71
2019-04-03T07:06:11.534Z,13.68
2019-04-03T07:08:43.400Z,13.66
2019-04-03T07:11:23.388Z,13.63
2019-04-03T07:13:47.591Z,13.61
2019-04-03T07:16:18.840Z,13.62
2019-04-03T07:18:50.147Z,13.63
2019-04-03T07:21:22.733Z,13.66
2019-04-03T07:23:54.464Z,13.68
2019-04-03T07:26:25.653Z,13.69
2019-04-03T07:28:57.011Z,13.68
2019-04-03T07:31:28.507Z,13.68
2019-04-03T07:34:01.879Z,13.68
2019-04-03T07:36:32.660Z,13.70
2019-04-03T07:39:05.448Z,13.71
2019-04-03T07:41:36.919Z,13.73
2019-04-03T07:44:08.133Z,13.74
2019-04-03T07:46:39.325Z,13.75
2019-04-03T07:49:10.567Z,13.75
2019-04-03T07:51:43.237Z,13.76
2019-04-03T07:54:14.891Z,13.76
2019-04-03T07:56:46.082Z,13.75
2019-04-03T07:59:17.285Z,13.78
2019-04-03T08:01:48.536Z,13.81
2019-04-03T08:04:21.973Z,13.85
2019-04-03T08:06:53.814Z,13.89
2019-04-03T08:09:25.019Z,13.94
2019-04-03T08:11:56.210Z,13.99
2019-04-03T08:14:27.411Z,14.07
2019-04-03T08:16:58.576Z,14.13
2019-04-03T08:19:29.934Z,14.18
2019-04-03T08:22:02.524Z,14.25
2019-04-03T08:24:33.836Z,14.31
2019-04-03T08:27:07.876Z,14.38
2019-04-03T08:29:38.701Z,14.45
2019-04-03T08:32:10.609Z,14.52
2019-04-03T08:34:41.891Z,14.57
2019-04-03T08:37:13.096Z,14.63
2019-04-03T08:39:44.319Z,14.66
2019-04-03T08:42:15.452Z,14.70
2019-04-03T08:44:46.785Z,14.76
2019-04-03T08:47:17.890Z,14.81
2019-04-03T08:49:50.208Z,14.86
2019-04-03T08:52:21.347Z,14.92
2019-04-03T08:54:52.644Z,14.97
2019-04-03T08:57:23.822Z,14.99
2019-04-03T08:59:54.982Z,14.99
2019-04-03T09:02:26.285Z,14.95
2019-04-03T09:04:57.682Z,14.92
2019-04-03T09:07:28.880Z,14.90
2019-04-03T09:10:00.920Z,14.91
2019-04-03T09:12:32.678Z,14.94
2019-04-03T09:15:04.203Z,14.96
2019-04-03T09:17:35.501Z,14.96
2019-04-03T09:20:08.037Z,14.96
2019-04-03T09:22:39.238Z,14.93
2019-04-03T09:25:13.247Z,14.89
2019-04-03T09:27:43.706Z,14.90
2019-04-03T09:30:16.197Z,14.94
2019-04-03T09:32:48.176Z,14.92
2019-04-03T09:35:19.705Z,14.97
2019-04-03T09:37:51.046Z,14.98
2019-04-03T09:40:22.524Z,14.98
2019-04-03T09:42:54.886Z,14.98
2019-04-03T09:45:28.152Z,14.95
2019-04-03T09:47:59.238Z,14.97
2019-04-03T09:50:30.583Z,15.01
2019-04-03T09:53:02.813Z,15.08
2019-04-03T09:55:37.283Z,15.16
2019-04-03T09:58:07.060Z,15.25
2019-04-03T10:00:39.696Z,15.32
2019-04-03T10:03:11.241Z,15.34
2019-04-03T10:05:42.487Z,15.38
2019-04-03T10:08:13.733Z,15.40
2019-04-03T10:10:46.968Z,15.45
2019-04-03T10:13:18.218Z,15.49
2019-04-03T10:15:49.310Z,15.56
2019-04-03T10:18:22.148Z,15.64
2019-04-03T10:20:53.806Z,15.71
2019-04-03T10:23:26.586Z,15.79
2019-04-03T10:25:59.103Z,15.89
2019-04-03T10:28:30.327Z,15.98
2019-04-03T10:31:01.553Z,16.07
2019-04-03T10:33:32.734Z,16.18
2019-04-03T10:36:03.925Z,16.26
2019-04-03T10:38:36.204Z,16.35
2019-04-03T10:41:07.389Z,16.45
2019-04-03T10:43:38.716Z,16.53
2019-04-03T10:46:09.926Z,16.60
2019-04-03T10:48:41.347Z,16.69
2019-04-03T10:51:12.904Z,16.76
2019-04-03T10:53:44.259Z,16.82
2019-04-03T10:56:15.510Z,16.89
2019-04-03T10:58:49.483Z,16.94
2019-04-03T11:01:19.669Z,16.99
2019-04-03T11:03:50.904Z,17.03
2019-04-03T11:06:22.372Z,17.09
2019-04-03T11:08:53.602Z,17.16
2019-04-03T11:11:24.855Z,17.21
2019-04-03T11:13:56.055Z,17.28
2019-04-03T11:16:27.367Z,17.31
2019-04-03T11:19:03.653Z,17.36
2019-04-03T11:21:32.207Z,17.40
2019-04-03T11:24:05.895Z,17.46
2019-04-03T11:26:36.426Z,17.50
2019-04-03T11:29:10.149Z,17.56
2019-04-03T11:31:42.260Z,17.65
2019-04-03T11:34:16.724Z,17.73
2019-04-03T11:36:46.624Z,17.78
2019-04-03T11:39:17.896Z,17.80
2019-04-03T11:41:49.155Z,17.80
2019-04-03T11:44:20.343Z,17.75
2019-04-03T11:46:51.511Z,17.73
2019-04-03T11:49:22.738Z,17.73
2019-04-03T11:51:54.128Z,17.71
2019-04-03T11:54:25.377Z,17.70
2019-04-03T11:56:57.198Z,17.69
2019-04-03T11:59:28.778Z,17.70
2019-04-03T12:01:59.931Z,17.71
2019-04-03T12:04:31.296Z,17.73
2019-04-03T12:07:02.475Z,17.73
2019-04-03T12:09:33.828Z,17.74
2019-04-03T12:12:05.528Z,17.76
2019-04-03T12:14:37.003Z,17.77
2019-04-03T12:17:08.331Z,17.79
2019-04-03T12:19:40.487Z,17.79
2019-04-03T12:22:12.062Z,17.80
2019-04-03T12:24:43.398Z,17.84
2019-04-03T12:27:14.829Z,17.89
2019-04-03T12:29:46.441Z,17.93
2019-04-03T12:32:17.651Z,17.98
2019-04-03T12:34:48.899Z,18.02
2019-04-03T12:37:20.582Z,18.05
2019-04-03T12:39:52.137Z,18.07
2019-04-03T12:42:23.430Z,18.06
2019-04-03T12:44:55.687Z,18.10
2019-04-03T12:47:28.342Z,18.13
2019-04-03T12:49:59.858Z,18.15
2019-04-03T12:52:31.253Z,18.20
2019-04-03T12:55:02.851Z,18.29
2019-04-03T12:57:34.465Z,18.44
2019-04-03T13:00:10.603Z,18.72
2019-04-03T13:02:40.620Z,19.08
2019-04-03T13:05:12.205Z,19.41
2019-04-03T13:07:45.929Z,19.68
2019-04-03T13:10:16.967Z,19.77
2019-04-03T13:12:49.277Z,19.79
2019-04-03T13:15:20.572Z,19.78
2019-04-03T13:17:52.198Z,19.74
2019-04-03T13:20:23.589Z,19.73
2019-04-03T13:22:55.131Z,19.71
2019-04-03T13:25:27.064Z,19.77
2019-04-03T13:27:58.537Z,20.01
2019-04-03T13:30:30.000Z,20.24
2019-04-03T13:33:05.395Z,20.48
2019-04-03T13:35:34.419Z,20.70
2019-04-03T13:38:06.126Z,20.91
2019-04-03T13:40:38.959Z,21.18
2019-04-03T13:43:10.703Z,21.52
2019-04-03T13:45:42.047Z,21.90
2019-04-03T13:48:13.895Z,22.27
2019-04-03T13:50:47.893Z,22.61
2019-04-03T13:53:20.444Z,22.92
2019-04-03T13:55:51.509Z,23.16
2019-04-03T13:58:22.713Z,23.38
2019-04-03T14:01:00.798Z,23.58
2019-04-03T14:03:27.981Z,23.75
2019-04-03T14:05:59.318Z,23.99
2019-04-03T14:08:30.872Z,24.23
2019-04-03T14:11:02.594Z,24.46
2019-04-03T14:13:33.889Z,24.72
2019-04-03T14:16:18.144Z,24.84
2019-04-03T14:18:40.255Z,25.01
2019-04-03T14:21:11.781Z,25.21
2019-04-03T14:23:43.067Z,25.42
2019-04-03T14:26:14.740Z,25.64
2019-04-03T14:28:46.424Z,25.84
2019-04-03T14:31:18.569Z,26.01
2019-04-03T14:33:50.739Z,26.19
2019-04-03T14:36:21.952Z,26.29
2019-04-03T14:38:53.151Z,26.30
2019-04-03T14:41:24.319Z,26.24
2019-04-03T14:43:56.625Z,26.17
2019-04-03T14:46:28.132Z,26.11
2019-04-03T14:49:01.311Z,26.07
2019-04-03T14:51:32.577Z,26.03
2019-04-03T14:54:03.830Z,26.00
2019-04-03T14:56:35.010Z,25.91
2019-04-03T14:59:06.210Z,25.84
2019-04-03T15:01:37.455Z,25.76
2019-04-03T15:04:10.262Z,25.68
2019-04-03T15:06:41.455Z,25.64
2019-04-03T15:09:14.219Z,25.58
2019-04-03T15:11:46.006Z,25.45
2019-04-03T15:14:17.575Z,25.24
2019-04-03T15:16:49.016Z,25.00
2019-04-03T15:19:20.490Z,24.75
2019-04-03T15:21:52.329Z,24.51
2019-04-03T15:24:23.598Z,24.26
2019-04-03T15:26:55.112Z,24.01
2019-04-03T15:29:26.377Z,23.83
2019-04-03T15:31:57.561Z,23.70
2019-04-03T15:34:29.466Z,23.59
2019-04-03T15:37:00.781Z,23.54
2019-04-03T15:39:33.235Z,23.46
2019-04-03T15:42:06.683Z,23.34
2019-04-03T15:44:37.804Z,23.20
2019-04-03T15:47:10.331Z,23.03
2019-04-03T15:49:41.993Z,22.85
2019-04-03T15:52:13.835Z,22.68
2019-04-03T15:54:45.313Z,22.49
2019-04-03T15:57:18.768Z,22.32
2019-04-03T15:59:52.004Z,22.20
2019-04-03T16:02:22.689Z,22.05
2019-04-03T16:04:54.118Z,21.94
2019-04-03T16:07:25.345Z,21.91
2019-04-03T16:09:56.936Z,21.89
2019-04-03T16:12:28.245Z,21.83
2019-04-03T16:14:59.591Z,21.79
2019-04-03T16:17:33.514Z,21.74
2019-04-03T16:20:04.523Z,21.72
2019-04-03T16:22:35.882Z,21.77
2019-04-03T16:25:08.055Z,21.78
2019-04-03T16:27:39.384Z,21.75
2019-04-03T16:30:14.183Z,21.79
2019-04-03T16:32:43.711Z,21.84
2019-04-03T16:35:15.362Z,21.89
2019-04-03T16:37:46.536Z,21.96
2019-04-03T16:40:19.156Z,22.03
2019-04-03T16:42:53.023Z,22.14
2019-04-03T16:45:23.459Z,22.24
2019-04-03T16:47:55.206Z,22.24
2019-04-03T16:50:27.910Z,22.21
2019-04-03T16:52:59.558Z,22.15
2019-04-03T16:55:30.861Z,22.08
2019-04-03T16:58:02.047Z,21.99
2019-04-03T17:00:33.587Z,21.85
2019-04-03T17:03:04.880Z,21.68
2019-04-03T17:05:36.237Z,21.49
2019-04-03T17:08:07.765Z,21.31
2019-04-03T17:10:40.687Z,21.13
2019-04-03T17:13:12.323Z,20.94
2019-04-03T17:15:43.609Z,20.76
2019-04-03T17:18:17.153Z,20.59
2019-04-03T17:20:50.373Z,20.45
2019-04-03T17:23:21.109Z,20.29
2019-04-03T17:25:52.660Z,20.13
2019-04-03T17:28:26.274Z,19.99
2019-04-03T17:30:56.855Z,19.85
2019-04-03T17:33:28.110Z,19.73
2019-04-03T17:35:59.655Z,19.60
2019-04-03T17:38:32.683Z,19.47
2019-04-03T17:41:05.075Z,19.35
2019-04-03T17:43:36.857Z,19.25
2019-04-03T17:46:08.117Z,19.16
2019-04-03T17:48:39.294Z,19.06
2019-04-03T17:51:10.488Z,18.95
2019-04-03T17:53:41.715Z,18.88
2019-04-03T17:56:13.090Z,18.80
2019-04-03T17:58:46.047Z,18.72
2019-04-03T18:01:18.812Z,18.65
2019-04-03T18:03:50.170Z,18.56
2019-04-03T18:06:21.355Z,18.50
2019-04-03T18:08:52.727Z,18.42
2019-04-03T18:11:24.111Z,18.37
2019-04-03T18:13:55.640Z,18.29
2019-04-03T18:16:29.504Z,18.23
2019-04-03T18:18:59.790Z,18.17
2019-04-03T18:21:30.956Z,18.10
2019-04-03T18:24:02.254Z,18.04
2019-04-03T18:26:33.457Z,17.99
2019-04-03T18:29:06.731Z,17.93
2019-04-03T18:31:38.055Z,17.89
2019-04-03T18:34:09.363Z,17.85
2019-04-03T18:36:40.587Z,17.81
2019-04-03T18:39:12.282Z,17.75
2019-04-03T18:41:43.573Z,17.72
2019-04-03T18:44:21.931Z,17.65
2019-04-03T18:46:50.181Z,17.61
2019-04-03T18:49:20.903Z,17.56
2019-04-03T18:51:52.090Z,17.52
2019-04-03T18:54:23.443Z,17.47
2019-04-03T18:56:54.790Z,17.42
2019-04-03T18:59:26.473Z,17.38
2019-04-03T19:01:57.871Z,17.33
2019-04-03T19:04:29.139Z,17.30
2019-04-03T19:07:01.342Z,17.25
2019-04-03T19:09:32.669Z,17.19
2019-04-03T19:12:08.655Z,17.14
2019-04-03T19:14:40.182Z,17.09
2019-04-03T19:17:12.066Z,17.03
2019-04-03T19:19:43.344Z,16.98
2019-04-03T19:22:14.557Z,16.93
2019-04-03T19:24:45.797Z,16.88
2019-04-03T19:27:16.989Z,16.82
2019-04-03T19:29:48.275Z,16.77
2019-04-03T19:32:25.907Z,16.71
2019-04-03T19:35:08.861Z,16.66
2019-04-03T19:37:40.694Z,16.59
2019-04-03T19:40:12.926Z,16.54
2019-04-03T19:42:44.448Z,16.50
2019-04-03T19:45:15.869Z,16.48
2019-04-03T19:47:47.221Z,16.46
2019-04-03T19:50:18.486Z,16.43
2019-04-03T19:52:49.694Z,16.40
2019-04-03T19:55:23.347Z,16.37
2019-04-03T19:57:54.173Z,16.36
2019-04-03T20:00:25.480Z,16.34
2019-04-03T20:02:56.804Z,16.31
2019-04-03T20:05:33.274Z,16.28
2019-04-03T20:08:07.447Z,16.26
2019-04-03T20:10:38.881Z,16.23
2019-04-03T20:13:10.194Z,16.20
2019-04-03T20:15:41.551Z,16.19
2019-04-03T20:18:12.742Z,16.15
2019-04-03T20:20:44.340Z,16.15
2019-04-03T20:23:35.345Z,16.12
2019-04-03T20:26:06.693Z,16.08
2019-04-03T20:28:38.234Z,16.07
2019-04-03T20:31:09.552Z,16.05
2019-04-03T20:33:42.365Z,16.03
2019-04-03T20:36:16.552Z,16.01
2019-04-03T20:38:46.767Z,15.99
2019-04-03T20:41:18.084Z,15.95
2019-04-03T20:43:49.459Z,15.92
2019-04-03T20:46:22.041Z,15.89
2019-04-03T20:48:53.690Z,15.86
2019-04-03T20:51:24.998Z,15.82
2019-04-03T20:53:56.150Z,15.79
2019-04-03T20:59:58.790Z,15.72
2019-04-03T21:02:41.196Z,15.67
2019-04-03T21:05:29.394Z,15.64
2019-04-03T21:08:00.800Z,15.60
2019-04-03T21:11:10.693Z,15.54
2019-04-03T21:13:52.154Z,15.45
2019-04-03T21:16:50.417Z,15.43
2019-04-03T21:19:23.546Z,15.40
2019-04-03T21:21:55.105Z,15.38
2019-04-03T21:24:26.936Z,15.35
2019-04-03T21:26:58.215Z,15.33
2019-04-03T21:29:29.981Z,15.30
2019-04-03T21:32:01.387Z,15.28
2019-04-03T21:34:34.499Z,15.23
2019-04-03T21:37:07.662Z,15.21
2019-04-03T21:39:40.152Z,15.19
2019-04-03T21:42:11.654Z,15.18
2019-04-03T21:44:43.000Z,15.12
2019-04-03T21:47:14.289Z,15.10
2019-04-03T21:49:47.590Z,15.09
2019-04-03T21:52:20.924Z,15.09
2019-04-03T21:54:52.393Z,15.07
2019-04-03T21:57:23.733Z,15.05
2019-04-03T21:59:54.935Z,15.05
2019-04-03T22:02:26.383Z,15.05
2019-04-03T22:04:57.511Z,15.04
2019-04-03T22:07:29.042Z,15.05
2019-04-03T22:10:01.878Z,15.03
2019-04-03T22:12:33.177Z,15.03
2019-04-03T22:15:04.776Z,15.02
2019-04-03T22:17:36.292Z,15.01
2019-04-03T22:20:07.624Z,15.00
2019-04-03T22:22:39.055Z,14.98
2019-04-03T22:25:10.509Z,14.97
2019-04-03T22:27:42.769Z,14.95
2019-04-03T22:30:14.669Z,14.92
2019-04-03T22:32:46.273Z,14.89
2019-04-03T22:35:18.711Z,14.86
2019-04-03T22:37:49.933Z,14.84
2019-04-03T22:40:21.107Z,14.83
2019-04-03T22:42:52.328Z,14.77
2019-04-03T22:45:23.602Z,14.59
2019-04-03T22:47:56.337Z,14.36
2019-04-03T22:50:28.144Z,14.32
2019-04-03T22:52:59.464Z,14.29
2019-04-03T22:55:31.622Z,14.25
2019-04-03T22:58:02.924Z,14.27
2019-04-03T23:00:34.215Z,14.30
2019-04-03T23:03:06.912Z,14.31
2019-04-03T23:05:38.286Z,14.32
2019-04-03T23:08:09.586Z,14.37
2019-04-03T23:10:40.930Z,14.40
2019-04-03T23:13:12.223Z,14.42
2019-04-03T23:15:43.693Z,14.47
2019-04-03T23:18:15.984Z,14.52
2019-04-03T23:20:47.960Z,14.56
2019-04-03T23:23:19.542Z,14.59
2019-04-03T23:25:50.981Z,14.61
2019-04-03T23:28:22.309Z,14.64
2019-04-03T23:30:53.677Z,14.65
2019-04-03T23:33:26.009Z,14.64
2019-04-03T23:35:57.494Z,14.63
2019-04-03T23:38:28.903Z,14.63
2019-04-03T23:41:00.334Z,14.57
2019-04-03T23:43:31.600Z,14.52
2019-04-03T23:46:03.062Z,14.51
2019-04-03T23:48:34.530Z,14.51
2019-04-03T23:51:06.052Z,14.53
2019-04-03T23:53:37.396Z,14.51
2019-04-03T23:56:09.869Z,14.52
2019-04-03T23:58:41.859Z,14.50
